sensor_id;sensor_type;location;lat;lon;timestamp;noise_LAeq;noise_LA_min;noise_LA_max;noise_LA01;noise_LA95
81493;Laerm;70900;51.798;10.954;2023-08-06T00:01:37;32.59;28.01;45.24;;
81493;Laerm;70900;51.798;10.954;2023-08-06T00:04:02;31.62;27.36;45.63;;
81493;Laerm;70900;51.798;10.954;2023-08-06T00:06:28;43.78;27.44;62.55;;
81493;Laerm;70900;51.798;10.954;2023-08-06T00:08:53;52.45;29.80;69.73;;
81493;Laerm;70900;51.798;10.954;2023-08-06T00:11:20;35.61;31.00;46.19;;
81493;Laerm;70900;51.798;10.954;2023-08-06T00:13:45;51.60;30.39;67.58;;
81493;Laerm;70900;51.798;10.954;2023-08-06T00:16:11;33.00;30.09;45.41;;
81493;Laerm;70900;51.798;10.954;2023-08-06T00:18:36;31.90;28.42;41.73;;
81493;Laerm;70900;51.798;10.954;2023-08-06T00:21:02;31.00;27.12;45.00;;
81493;Laerm;70900;51.798;10.954;2023-08-06T00:23:27;30.36;26.11;44.60;;
81493;Laerm;70900;51.798;10.954;2023-08-06T00:25:53;29.87;26.28;43.26;;
81493;Laerm;70900;51.798;10.954;2023-08-06T00:28:18;30.32;25.97;43.22;;
81493;Laerm;70900;51.798;10.954;2023-08-06T00:30:43;34.32;29.48;42.92;;
81493;Laerm;70900;51.798;10.954;2023-08-06T00:33:09;34.79;27.52;43.47;;
81493;Laerm;70900;51.798;10.954;2023-08-06T00:35:34;28.86;26.39;40.52;;
81493;Laerm;70900;51.798;10.954;2023-08-06T00:37:59;29.00;26.17;44.13;;
81493;Laerm;70900;51.798;10.954;2023-08-06T00:40:25;29.49;26.54;40.69;;
81493;Laerm;70900;51.798;10.954;2023-08-06T00:42:50;55.71;28.75;68.36;;
81493;Laerm;70900;51.798;10.954;2023-08-06T00:45:16;42.96;32.88;57.73;;
81493;Laerm;70900;51.798;10.954;2023-08-06T00:47:41;51.52;26.89;65.30;;
81493;Laerm;70900;51.798;10.954;2023-08-06T00:50:07;28.79;25.67;38.67;;
81493;Laerm;70900;51.798;10.954;2023-08-06T00:52:33;31.16;26.52;50.15;;
81493;Laerm;70900;51.798;10.954;2023-08-06T00:54:59;30.67;26.63;46.52;;
81493;Laerm;70900;51.798;10.954;2023-08-06T00:57:24;45.37;28.04;58.49;;
81493;Laerm;70900;51.798;10.954;2023-08-06T00:59:51;30.10;25.20;42.00;;
81493;Laerm;70900;51.798;10.954;2023-08-06T01:02:17;30.19;25.16;43.09;;
81493;Laerm;70900;51.798;10.954;2023-08-06T01:04:42;27.67;24.71;42.51;;
81493;Laerm;70900;51.798;10.954;2023-08-06T01:07:16;28.14;25.04;45.11;;
81493;Laerm;70900;51.798;10.954;2023-08-06T01:09:51;28.46;25.37;39.60;;
81493;Laerm;70900;51.798;10.954;2023-08-06T01:14:52;29.39;25.61;39.50;;
81493;Laerm;70900;51.798;10.954;2023-08-06T01:17:19;52.17;26.32;69.85;;
81493;Laerm;70900;51.798;10.954;2023-08-06T01:19:45;30.83;25.74;46.56;;
81493;Laerm;70900;51.798;10.954;2023-08-06T01:22:10;27.95;24.71;38.20;;
81493;Laerm;70900;51.798;10.954;2023-08-06T01:24:36;28.56;25.39;42.79;;
81493;Laerm;70900;51.798;10.954;2023-08-06T01:27:06;27.72;24.65;39.60;;
81493;Laerm;70900;51.798;10.954;2023-08-06T01:29:40;51.47;25.63;67.39;;
81493;Laerm;70900;51.798;10.954;2023-08-06T01:32:08;35.55;26.20;47.83;;
81493;Laerm;70900;51.798;10.954;2023-08-06T01:34:33;47.72;25.70;66.90;;
81493;Laerm;70900;51.798;10.954;2023-08-06T01:36:59;46.02;25.68;66.55;;
81493;Laerm;70900;51.798;10.954;2023-08-06T01:39:25;35.28;25.85;56.04;;
81493;Laerm;70900;51.798;10.954;2023-08-06T01:41:50;38.60;25.82;56.25;;
81493;Laerm;70900;51.798;10.954;2023-08-06T01:44:16;28.50;25.02;38.39;;
81493;Laerm;70900;51.798;10.954;2023-08-06T01:46:41;28.04;24.68;43.08;;
81493;Laerm;70900;51.798;10.954;2023-08-06T01:49:07;34.62;25.73;46.78;;
81493;Laerm;70900;51.798;10.954;2023-08-06T01:51:32;38.03;24.86;53.72;;
81493;Laerm;70900;51.798;10.954;2023-08-06T01:53:57;27.99;24.26;39.31;;
81493;Laerm;70900;51.798;10.954;2023-08-06T01:56:23;26.62;23.51;45.07;;
81493;Laerm;70900;51.798;10.954;2023-08-06T01:58:48;25.25;23.40;39.31;;
81493;Laerm;70900;51.798;10.954;2023-08-06T02:01:14;25.88;23.67;36.20;;
81493;Laerm;70900;51.798;10.954;2023-08-06T02:03:39;25.58;23.57;41.44;;
81493;Laerm;70900;51.798;10.954;2023-08-06T02:06:04;26.04;23.38;38.04;;
81493;Laerm;70900;51.798;10.954;2023-08-06T02:08:30;25.56;23.50;40.13;;
81493;Laerm;70900;51.798;10.954;2023-08-06T02:10:56;26.75;24.38;37.78;;
81493;Laerm;70900;51.798;10.954;2023-08-06T02:13:22;27.10;25.00;43.16;;
81493;Laerm;70900;51.798;10.954;2023-08-06T02:15:48;51.38;26.18;68.16;;
81493;Laerm;70900;51.798;10.954;2023-08-06T02:18:14;44.80;25.72;60.44;;
81493;Laerm;70900;51.798;10.954;2023-08-06T02:20:40;35.78;26.18;61.23;;
81493;Laerm;70900;51.798;10.954;2023-08-06T02:23:05;28.07;26.04;37.44;;
81493;Laerm;70900;51.798;10.954;2023-08-06T02:25:31;31.08;25.01;43.17;;
81493;Laerm;70900;51.798;10.954;2023-08-06T02:27:56;25.85;23.87;35.29;;
81493;Laerm;70900;51.798;10.954;2023-08-06T02:30:21;26.25;23.86;37.23;;
81493;Laerm;70900;51.798;10.954;2023-08-06T02:32:47;27.42;24.69;36.36;;
81493;Laerm;70900;51.798;10.954;2023-08-06T02:35:12;26.38;24.00;41.07;;
81493;Laerm;70900;51.798;10.954;2023-08-06T02:37:37;27.23;24.32;41.79;;
81493;Laerm;70900;51.798;10.954;2023-08-06T02:40:03;30.04;24.58;44.12;;
81493;Laerm;70900;51.798;10.954;2023-08-06T02:42:28;38.63;24.87;57.76;;
81493;Laerm;70900;51.798;10.954;2023-08-06T02:44:54;33.05;24.73;55.41;;
81493;Laerm;70900;51.798;10.954;2023-08-06T02:47:22;28.11;25.60;40.61;;
81493;Laerm;70900;51.798;10.954;2023-08-06T02:49:48;28.87;25.19;43.26;;
81493;Laerm;70900;51.798;10.954;2023-08-06T02:52:14;40.82;25.44;61.02;;
81493;Laerm;70900;51.798;10.954;2023-08-06T02:54:39;36.67;24.75;55.70;;
81493;Laerm;70900;51.798;10.954;2023-08-06T02:57:05;26.61;24.45;36.32;;
81493;Laerm;70900;51.798;10.954;2023-08-06T02:59:30;27.69;24.99;37.95;;
81493;Laerm;70900;51.798;10.954;2023-08-06T03:01:56;29.17;24.83;38.23;;
81493;Laerm;70900;51.798;10.954;2023-08-06T03:04:21;28.60;24.71;36.00;;
81493;Laerm;70900;51.798;10.954;2023-08-06T03:06:48;26.96;24.35;35.38;;
81493;Laerm;70900;51.798;10.954;2023-08-06T03:09:14;27.65;24.41;39.31;;
81493;Laerm;70900;51.798;10.954;2023-08-06T03:11:39;29.39;25.63;41.94;;
81493;Laerm;70900;51.798;10.954;2023-08-06T03:14:05;29.69;26.57;39.83;;
81493;Laerm;70900;51.798;10.954;2023-08-06T03:16:30;30.62;27.10;41.45;;
81493;Laerm;70900;51.798;10.954;2023-08-06T03:18:56;47.68;26.95;62.62;;
81493;Laerm;70900;51.798;10.954;2023-08-06T03:21:21;28.85;25.94;34.39;;
81493;Laerm;70900;51.798;10.954;2023-08-06T03:23:47;48.03;26.29;63.94;;
81493;Laerm;70900;51.798;10.954;2023-08-06T03:26:13;33.60;27.38;48.54;;
81493;Laerm;70900;51.798;10.954;2023-08-06T03:28:39;28.94;25.89;37.90;;
81493;Laerm;70900;51.798;10.954;2023-08-06T03:31:04;50.42;25.30;66.47;;
81493;Laerm;70900;51.798;10.954;2023-08-06T03:33:29;28.91;25.81;38.30;;
81493;Laerm;70900;51.798;10.954;2023-08-06T03:35:55;51.79;25.82;67.87;;
81493;Laerm;70900;51.798;10.954;2023-08-06T03:38:20;46.15;24.80;61.80;;
81493;Laerm;70900;51.798;10.954;2023-08-06T03:40:46;29.75;25.00;48.89;;
81493;Laerm;70900;51.798;10.954;2023-08-06T03:43:12;33.40;25.28;47.56;;
81493;Laerm;70900;51.798;10.954;2023-08-06T03:45:37;28.07;24.65;38.66;;
81493;Laerm;70900;51.798;10.954;2023-08-06T03:48:02;28.11;25.23;41.42;;
81493;Laerm;70900;51.798;10.954;2023-08-06T03:50:28;29.64;25.70;41.74;;
81493;Laerm;70900;51.798;10.954;2023-08-06T03:52:53;48.97;26.87;62.22;;
81493;Laerm;70900;51.798;10.954;2023-08-06T03:55:18;28.91;25.35;47.06;;
81493;Laerm;70900;51.798;10.954;2023-08-06T03:57:44;29.19;25.45;38.49;;
81493;Laerm;70900;51.798;10.954;2023-08-06T04:00:09;31.14;25.57;42.08;;
81493;Laerm;70900;51.798;10.954;2023-08-06T04:02:35;37.11;27.72;48.40;;
81493;Laerm;70900;51.798;10.954;2023-08-06T04:05:00;36.74;27.06;47.46;;
81493;Laerm;70900;51.798;10.954;2023-08-06T04:07:26;39.16;26.38;51.87;;
81493;Laerm;70900;51.798;10.954;2023-08-06T04:09:57;37.70;29.72;48.79;;
81493;Laerm;70900;51.798;10.954;2023-08-06T04:12:23;35.23;27.64;48.66;;
81493;Laerm;70900;51.798;10.954;2023-08-06T04:14:49;30.87;27.31;38.88;;
81493;Laerm;70900;51.798;10.954;2023-08-06T04:17:14;49.97;27.36;62.48;;
81493;Laerm;70900;51.798;10.954;2023-08-06T04:19:40;34.66;27.60;47.41;;
81493;Laerm;70900;51.798;10.954;2023-08-06T04:22:05;34.31;27.34;44.32;;
81493;Laerm;70900;51.798;10.954;2023-08-06T04:24:31;35.77;27.50;47.02;;
81493;Laerm;70900;51.798;10.954;2023-08-06T04:26:57;36.63;26.68;49.25;;
81493;Laerm;70900;51.798;10.954;2023-08-06T04:29:22;32.98;27.69;45.62;;
81493;Laerm;70900;51.798;10.954;2023-08-06T04:31:48;33.21;27.98;41.75;;
81493;Laerm;70900;51.798;10.954;2023-08-06T04:34:13;37.59;27.87;54.52;;
81493;Laerm;70900;51.798;10.954;2023-08-06T04:36:38;46.63;27.75;62.95;;
81493;Laerm;70900;51.798;10.954;2023-08-06T04:39:04;38.30;27.73;54.20;;
81493;Laerm;70900;51.798;10.954;2023-08-06T04:41:29;43.32;27.81;57.63;;
81493;Laerm;70900;51.798;10.954;2023-08-06T04:43:56;43.28;27.85;64.06;;
81493;Laerm;70900;51.798;10.954;2023-08-06T04:46:21;43.02;27.73;56.94;;
81493;Laerm;70900;51.798;10.954;2023-08-06T04:48:47;41.33;30.38;54.83;;
81493;Laerm;70900;51.798;10.954;2023-08-06T04:51:12;48.23;29.18;62.29;;
81493;Laerm;70900;51.798;10.954;2023-08-06T04:53:38;38.29;26.92;56.54;;
81493;Laerm;70900;51.798;10.954;2023-08-06T04:56:03;49.63;26.75;64.19;;
81493;Laerm;70900;51.798;10.954;2023-08-06T04:58:28;49.88;29.46;65.54;;
81493;Laerm;70900;51.798;10.954;2023-08-06T05:00:54;41.31;27.90;55.62;;
81493;Laerm;70900;51.798;10.954;2023-08-06T05:03:19;39.14;28.59;56.87;;
81493;Laerm;70900;51.798;10.954;2023-08-06T05:05:45;37.04;27.06;52.66;;
81493;Laerm;70900;51.798;10.954;2023-08-06T05:08:13;34.12;26.93;51.49;;
81493;Laerm;70900;51.798;10.954;2023-08-06T05:10:41;51.60;26.42;68.76;;
81493;Laerm;70900;51.798;10.954;2023-08-06T05:13:07;36.56;26.55;48.66;;
81493;Laerm;70900;51.798;10.954;2023-08-06T05:15:32;33.29;26.02;52.01;;
81493;Laerm;70900;51.798;10.954;2023-08-06T05:17:58;32.10;26.28;49.45;;
81493;Laerm;70900;51.798;10.954;2023-08-06T05:20:23;32.70;26.04;46.98;;
81493;Laerm;70900;51.798;10.954;2023-08-06T05:22:49;45.85;27.42;61.39;;
81493;Laerm;70900;51.798;10.954;2023-08-06T05:25:14;36.35;29.69;48.32;;
81493;Laerm;70900;51.798;10.954;2023-08-06T05:27:40;51.07;31.34;67.96;;
81493;Laerm;70900;51.798;10.954;2023-08-06T05:30:05;33.74;28.23;43.97;;
81493;Laerm;70900;51.798;10.954;2023-08-06T05:32:31;34.13;29.81;43.71;;
81493;Laerm;70900;51.798;10.954;2023-08-06T05:34:56;33.80;27.76;47.41;;
81493;Laerm;70900;51.798;10.954;2023-08-06T05:37:22;36.18;26.56;54.74;;
81493;Laerm;70900;51.798;10.954;2023-08-06T05:39:47;49.59;28.25;67.23;;
81493;Laerm;70900;51.798;10.954;2023-08-06T05:42:12;32.87;27.27;44.97;;
81493;Laerm;70900;51.798;10.954;2023-08-06T05:44:38;34.00;26.82;49.72;;
81493;Laerm;70900;51.798;10.954;2023-08-06T05:47:03;40.35;27.15;58.73;;
81493;Laerm;70900;51.798;10.954;2023-08-06T05:49:29;54.44;33.68;68.96;;
81493;Laerm;70900;51.798;10.954;2023-08-06T05:51:54;48.40;33.78;61.40;;
81493;Laerm;70900;51.798;10.954;2023-08-06T05:54:20;52.68;27.65;67.62;;
81493;Laerm;70900;51.798;10.954;2023-08-06T05:56:45;40.54;26.29;62.93;;
81493;Laerm;70900;51.798;10.954;2023-08-06T05:59:11;33.82;26.39;51.08;;
81493;Laerm;70900;51.798;10.954;2023-08-06T06:01:36;36.63;28.19;45.70;;
81493;Laerm;70900;51.798;10.954;2023-08-06T06:04:01;35.85;28.47;46.80;;
81493;Laerm;70900;51.798;10.954;2023-08-06T06:06:27;35.21;28.56;46.14;;
81493;Laerm;70900;51.798;10.954;2023-08-06T06:08:52;54.50;28.08;70.75;;
81493;Laerm;70900;51.798;10.954;2023-08-06T06:11:17;45.93;27.23;60.45;;
81493;Laerm;70900;51.798;10.954;2023-08-06T06:13:47;41.15;27.09;58.87;;
81493;Laerm;70900;51.798;10.954;2023-08-06T06:16:12;33.93;27.85;47.76;;
81493;Laerm;70900;51.798;10.954;2023-08-06T06:18:37;34.93;28.17;49.49;;
81493;Laerm;70900;51.798;10.954;2023-08-06T06:21:03;47.99;28.24;62.84;;
81493;Laerm;70900;51.798;10.954;2023-08-06T06:23:28;43.79;28.14;58.07;;
81493;Laerm;70900;51.798;10.954;2023-08-06T06:25:54;48.18;31.28;64.20;;
81493;Laerm;70900;51.798;10.954;2023-08-06T06:28:20;54.54;28.85;72.70;;
81493;Laerm;70900;51.798;10.954;2023-08-06T06:30:46;35.59;27.80;50.66;;
81493;Laerm;70900;51.798;10.954;2023-08-06T06:33:11;50.35;29.83;66.28;;
81493;Laerm;70900;51.798;10.954;2023-08-06T06:35:37;37.52;29.58;52.35;;
81493;Laerm;70900;51.798;10.954;2023-08-06T06:38:02;41.96;28.74;52.81;;
81493;Laerm;70900;51.798;10.954;2023-08-06T06:40:28;53.25;30.17;66.04;;
81493;Laerm;70900;51.798;10.954;2023-08-06T06:42:53;37.15;28.15;50.86;;
81493;Laerm;70900;51.798;10.954;2023-08-06T06:45:19;49.83;29.17;65.79;;
81493;Laerm;70900;51.798;10.954;2023-08-06T06:47:44;36.00;29.97;52.27;;
81493;Laerm;70900;51.798;10.954;2023-08-06T06:50:10;41.01;28.69;56.85;;
81493;Laerm;70900;51.798;10.954;2023-08-06T06:52:35;50.89;30.90;66.63;;
81493;Laerm;70900;51.798;10.954;2023-08-06T06:55:00;45.54;29.66;59.44;;
81493;Laerm;70900;51.798;10.954;2023-08-06T06:57:26;52.02;28.70;68.92;;
81493;Laerm;70900;51.798;10.954;2023-08-06T06:59:52;34.09;28.88;45.17;;
81493;Laerm;70900;51.798;10.954;2023-08-06T07:02:17;53.87;29.97;70.96;;
81493;Laerm;70900;51.798;10.954;2023-08-06T07:04:42;42.48;28.42;58.05;;
81493;Laerm;70900;51.798;10.954;2023-08-06T07:07:08;58.22;29.12;72.50;;
81493;Laerm;70900;51.798;10.954;2023-08-06T07:09:33;46.40;29.88;61.20;;
81493;Laerm;70900;51.798;10.954;2023-08-06T07:11:59;50.18;30.19;63.22;;
81493;Laerm;70900;51.798;10.954;2023-08-06T07:14:25;46.33;28.38;61.66;;
81493;Laerm;70900;51.798;10.954;2023-08-06T07:16:50;39.41;30.15;52.40;;
81493;Laerm;70900;51.798;10.954;2023-08-06T07:19:16;51.27;34.96;66.30;;
81493;Laerm;70900;51.798;10.954;2023-08-06T07:21:41;51.60;35.09;65.58;;
81493;Laerm;70900;51.798;10.954;2023-08-06T07:24:07;46.12;29.94;59.78;;
81493;Laerm;70900;51.798;10.954;2023-08-06T07:26:32;39.09;28.82;61.51;;
81493;Laerm;70900;51.798;10.954;2023-08-06T07:28:58;53.98;31.53;72.30;;
81493;Laerm;70900;51.798;10.954;2023-08-06T07:31:23;49.84;31.73;63.08;;
81493;Laerm;70900;51.798;10.954;2023-08-06T07:33:48;38.32;31.64;50.91;;
81493;Laerm;70900;51.798;10.954;2023-08-06T07:36:14;54.90;31.88;69.69;;
81493;Laerm;70900;51.798;10.954;2023-08-06T07:38:40;49.06;32.69;64.70;;
81493;Laerm;70900;51.798;10.954;2023-08-06T07:41:05;45.52;31.06;60.52;;
81493;Laerm;70900;51.798;10.954;2023-08-06T07:43:31;63.43;33.66;80.11;;
81493;Laerm;70900;51.798;10.954;2023-08-06T07:46:00;47.79;32.03;63.27;;
81493;Laerm;70900;51.798;10.954;2023-08-06T07:48:26;48.83;32.81;63.78;;
81493;Laerm;70900;51.798;10.954;2023-08-06T07:50:54;48.50;30.31;64.38;;
81493;Laerm;70900;51.798;10.954;2023-08-06T07:53:20;48.42;30.43;62.83;;
81493;Laerm;70900;51.798;10.954;2023-08-06T07:55:52;48.10;31.32;63.21;;
81493;Laerm;70900;51.798;10.954;2023-08-06T07:58:18;38.62;32.10;50.07;;
81493;Laerm;70900;51.798;10.954;2023-08-06T08:00:43;39.41;32.18;60.46;;
81493;Laerm;70900;51.798;10.954;2023-08-06T08:03:13;45.07;33.92;57.10;;
81493;Laerm;70900;51.798;10.954;2023-08-06T08:05:39;51.74;33.76;64.32;;
81493;Laerm;70900;51.798;10.954;2023-08-06T08:08:05;39.16;32.01;50.66;;
81493;Laerm;70900;51.798;10.954;2023-08-06T08:10:30;52.47;32.55;65.72;;
81493;Laerm;70900;51.798;10.954;2023-08-06T08:12:56;52.77;32.68;66.61;;
81493;Laerm;70900;51.798;10.954;2023-08-06T08:15:21;50.18;31.05;65.40;;
81493;Laerm;70900;51.798;10.954;2023-08-06T08:17:47;53.30;35.14;65.15;;
81493;Laerm;70900;51.798;10.954;2023-08-06T08:20:13;50.90;35.30;63.17;;
81493;Laerm;70900;51.798;10.954;2023-08-06T08:22:38;52.39;31.70;70.89;;
81493;Laerm;70900;51.798;10.954;2023-08-06T08:25:04;55.13;34.18;67.30;;
81493;Laerm;70900;51.798;10.954;2023-08-06T08:27:29;41.38;34.47;55.40;;
81493;Laerm;70900;51.798;10.954;2023-08-06T08:29:55;55.42;33.46;69.52;;
81493;Laerm;70900;51.798;10.954;2023-08-06T08:32:21;54.93;36.21;67.74;;
81493;Laerm;70900;51.798;10.954;2023-08-06T08:34:47;49.99;33.49;63.21;;
81493;Laerm;70900;51.798;10.954;2023-08-06T08:37:13;49.66;33.91;64.94;;
81493;Laerm;70900;51.798;10.954;2023-08-06T08:39:38;49.38;35.78;64.99;;
81493;Laerm;70900;51.798;10.954;2023-08-06T08:42:03;42.88;35.22;57.37;;
81493;Laerm;70900;51.798;10.954;2023-08-06T08:44:29;42.57;33.88;53.28;;
81493;Laerm;70900;51.798;10.954;2023-08-06T08:46:56;52.28;36.00;66.33;;
81493;Laerm;70900;51.798;10.954;2023-08-06T08:49:22;40.78;34.50;57.17;;
81493;Laerm;70900;51.798;10.954;2023-08-06T08:51:48;49.59;35.01;63.73;;
81493;Laerm;70900;51.798;10.954;2023-08-06T08:54:15;55.74;32.77;67.39;;
81493;Laerm;70900;51.798;10.954;2023-08-06T08:56:41;53.75;32.58;69.19;;
81493;Laerm;70900;51.798;10.954;2023-08-06T08:59:07;50.03;33.58;65.90;;
81493;Laerm;70900;51.798;10.954;2023-08-06T09:01:32;51.97;35.19;66.80;;
81493;Laerm;70900;51.798;10.954;2023-08-06T09:03:58;51.52;33.61;62.62;;
81493;Laerm;70900;51.798;10.954;2023-08-06T09:06:25;58.26;39.85;72.35;;
81493;Laerm;70900;51.798;10.954;2023-08-06T09:08:59;54.36;33.84;69.16;;
81493;Laerm;70900;51.798;10.954;2023-08-06T09:11:26;42.83;35.46;63.52;;
81493;Laerm;70900;51.798;10.954;2023-08-06T09:13:52;46.75;33.36;62.20;;
81493;Laerm;70900;51.798;10.954;2023-08-06T09:16:20;43.49;34.25;60.39;;
81493;Laerm;70900;51.798;10.954;2023-08-06T09:18:45;51.46;34.41;63.79;;
81493;Laerm;70900;51.798;10.954;2023-08-06T09:21:14;37.48;34.04;51.76;;
81493;Laerm;70900;51.798;10.954;2023-08-06T09:23:41;55.57;33.66;66.02;;
81493;Laerm;70900;51.798;10.954;2023-08-06T09:26:06;52.63;35.12;65.17;;
81493;Laerm;70900;51.798;10.954;2023-08-06T09:28:37;50.61;33.10;63.75;;
81493;Laerm;70900;51.798;10.954;2023-08-06T09:31:08;52.55;34.14;69.03;;
81493;Laerm;70900;51.798;10.954;2023-08-06T09:33:35;54.17;34.83;68.39;;
81493;Laerm;70900;51.798;10.954;2023-08-06T09:36:10;50.94;33.69;62.79;;
81493;Laerm;70900;51.798;10.954;2023-08-06T09:38:38;53.63;33.94;64.96;;
81493;Laerm;70900;51.798;10.954;2023-08-06T09:41:05;51.47;35.15;73.80;;
81493;Laerm;70900;51.798;10.954;2023-08-06T09:43:34;51.51;34.85;65.95;;
81493;Laerm;70900;51.798;10.954;2023-08-06T09:46:10;52.81;31.52;68.01;;
81493;Laerm;70900;51.798;10.954;2023-08-06T09:48:35;41.63;33.17;56.28;;
81493;Laerm;70900;51.798;10.954;2023-08-06T09:51:01;53.78;34.62;68.18;;
81493;Laerm;70900;51.798;10.954;2023-08-06T09:53:27;53.26;34.62;66.66;;
81493;Laerm;70900;51.798;10.954;2023-08-06T09:55:53;53.96;34.05;66.19;;
81493;Laerm;70900;51.798;10.954;2023-08-06T09:58:20;41.89;32.50;64.13;;
81493;Laerm;70900;51.798;10.954;2023-08-06T10:00:47;54.90;33.59;69.89;;
81493;Laerm;70900;51.798;10.954;2023-08-06T10:03:12;44.77;32.20;65.31;;
81493;Laerm;70900;51.798;10.954;2023-08-06T10:05:39;54.82;31.88;69.84;;
81493;Laerm;70900;51.798;10.954;2023-08-06T10:08:05;47.11;32.20;62.10;;
81493;Laerm;70900;51.798;10.954;2023-08-06T10:10:32;38.83;31.51;50.34;;
81493;Laerm;70900;51.798;10.954;2023-08-06T10:12:57;47.81;31.93;60.71;;
81493;Laerm;70900;51.798;10.954;2023-08-06T10:15:25;51.59;32.74;65.19;;
81493;Laerm;70900;51.798;10.954;2023-08-06T10:17:51;49.48;31.92;64.98;;
81493;Laerm;70900;51.798;10.954;2023-08-06T10:20:19;49.17;31.56;65.05;;
81493;Laerm;70900;51.798;10.954;2023-08-06T10:22:46;54.20;32.13;68.18;;
81493;Laerm;70900;51.798;10.954;2023-08-06T10:25:24;53.88;34.37;72.06;;
81493;Laerm;70900;51.798;10.954;2023-08-06T10:30:25;52.64;31.50;65.62;;
81493;Laerm;70900;51.798;10.954;2023-08-06T10:32:51;52.12;31.49;66.89;;
81493;Laerm;70900;51.798;10.954;2023-08-06T10:35:30;53.90;31.16;71.75;;
81493;Laerm;70900;51.798;10.954;2023-08-06T10:40:30;49.43;30.43;65.59;;
81493;Laerm;70900;51.798;10.954;2023-08-06T10:42:59;49.94;31.49;62.27;;
81493;Laerm;70900;51.798;10.954;2023-08-06T10:45:26;60.41;32.47;79.97;;
81493;Laerm;70900;51.798;10.954;2023-08-06T10:47:54;53.59;31.74;67.44;;
81493;Laerm;70900;51.798;10.954;2023-08-06T10:50:20;53.96;32.00;65.56;;
81493;Laerm;70900;51.798;10.954;2023-08-06T10:52:45;38.78;31.78;49.11;;
81493;Laerm;70900;51.798;10.954;2023-08-06T10:55:12;51.57;31.99;65.51;;
81493;Laerm;70900;51.798;10.954;2023-08-06T10:57:37;50.44;33.41;63.35;;
81493;Laerm;70900;51.798;10.954;2023-08-06T11:00:06;49.14;33.98;64.12;;
81493;Laerm;70900;51.798;10.954;2023-08-06T11:02:38;55.84;34.40;66.61;;
81493;Laerm;70900;51.798;10.954;2023-08-06T11:05:07;49.05;31.81;64.87;;
81493;Laerm;70900;51.798;10.954;2023-08-06T11:07:33;51.66;33.38;63.03;;
81493;Laerm;70900;51.798;10.954;2023-08-06T11:10:04;46.01;32.48;59.21;;
81493;Laerm;70900;51.798;10.954;2023-08-06T11:12:31;48.26;36.00;63.77;;
81493;Laerm;70900;51.798;10.954;2023-08-06T11:14:56;51.17;31.94;66.38;;
81493;Laerm;70900;51.798;10.954;2023-08-06T11:17:22;49.95;32.48;65.06;;
81493;Laerm;70900;51.798;10.954;2023-08-06T11:19:47;50.65;33.61;64.06;;
81493;Laerm;70900;51.798;10.954;2023-08-06T11:22:14;36.70;32.12;44.14;;
81493;Laerm;70900;51.798;10.954;2023-08-06T11:24:39;47.30;33.01;62.62;;
81493;Laerm;70900;51.798;10.954;2023-08-06T11:27:14;38.88;32.81;54.12;;
81493;Laerm;70900;51.798;10.954;2023-08-06T11:29:41;55.45;36.10;64.29;;
81493;Laerm;70900;51.798;10.954;2023-08-06T11:32:07;50.86;37.99;65.61;;
81493;Laerm;70900;51.798;10.954;2023-08-06T11:34:32;55.35;33.54;73.08;;
81493;Laerm;70900;51.798;10.954;2023-08-06T11:36:58;49.95;34.80;63.39;;
81493;Laerm;70900;51.798;10.954;2023-08-06T11:39:23;36.51;32.66;46.02;;
81493;Laerm;70900;51.798;10.954;2023-08-06T11:41:49;37.08;32.13;50.62;;
81493;Laerm;70900;51.798;10.954;2023-08-06T11:44:14;47.67;34.26;62.85;;
81493;Laerm;70900;51.798;10.954;2023-08-06T11:46:55;47.31;33.27;63.23;;
81493;Laerm;70900;51.798;10.954;2023-08-06T11:49:37;47.74;32.92;65.95;;
81493;Laerm;70900;51.798;10.954;2023-08-06T11:52:38;36.99;32.08;54.41;;
81493;Laerm;70900;51.798;10.954;2023-08-06T11:57:29;37.66;32.48;44.98;;
81493;Laerm;70900;51.798;10.954;2023-08-06T11:59:58;51.47;35.71;64.36;;
81493;Laerm;70900;51.798;10.954;2023-08-06T12:02:23;37.38;34.15;45.63;;
81493;Laerm;70900;51.798;10.954;2023-08-06T12:07:30;52.36;34.45;68.11;;
81493;Laerm;70900;51.798;10.954;2023-08-06T12:09:56;45.04;34.17;60.28;;
81493;Laerm;70900;51.798;10.954;2023-08-06T12:12:21;46.41;32.15;60.40;;
81493;Laerm;70900;51.798;10.954;2023-08-06T12:14:47;50.51;32.56;65.89;;
81493;Laerm;70900;51.798;10.954;2023-08-06T12:17:12;51.68;33.54;68.18;;
81493;Laerm;70900;51.798;10.954;2023-08-06T12:19:38;49.23;33.90;63.66;;
81493;Laerm;70900;51.798;10.954;2023-08-06T12:22:04;46.03;33.46;61.90;;
81493;Laerm;70900;51.798;10.954;2023-08-06T12:24:29;52.47;31.53;66.32;;
81493;Laerm;70900;51.798;10.954;2023-08-06T12:26:57;42.74;32.86;63.47;;
81493;Laerm;70900;51.798;10.954;2023-08-06T12:29:23;60.28;36.04;75.15;;
81493;Laerm;70900;51.798;10.954;2023-08-06T12:31:48;56.40;35.35;73.73;;
81493;Laerm;70900;51.798;10.954;2023-08-06T12:34:13;53.97;35.28;71.03;;
81493;Laerm;70900;51.798;10.954;2023-08-06T12:36:39;52.75;37.46;66.57;;
81493;Laerm;70900;51.798;10.954;2023-08-06T12:39:04;45.02;36.52;62.38;;
81493;Laerm;70900;51.798;10.954;2023-08-06T12:41:30;51.78;35.27;65.80;;
81493;Laerm;70900;51.798;10.954;2023-08-06T12:43:55;53.60;36.05;67.76;;
81493;Laerm;70900;51.798;10.954;2023-08-06T12:46:21;51.81;35.65;64.96;;
81493;Laerm;70900;51.798;10.954;2023-08-06T12:48:46;46.88;35.38;62.01;;
81493;Laerm;70900;51.798;10.954;2023-08-06T12:51:13;39.26;34.61;49.76;;
81493;Laerm;70900;51.798;10.954;2023-08-06T12:53:39;61.97;33.10;78.39;;
81493;Laerm;70900;51.798;10.954;2023-08-06T12:56:04;53.20;34.26;69.39;;
81493;Laerm;70900;51.798;10.954;2023-08-06T12:58:30;48.83;33.71;62.60;;
81493;Laerm;70900;51.798;10.954;2023-08-06T13:00:56;50.97;36.30;64.61;;
81493;Laerm;70900;51.798;10.954;2023-08-06T13:03:21;49.25;36.12;63.16;;
81493;Laerm;70900;51.798;10.954;2023-08-06T13:05:47;43.62;35.41;57.92;;
81493;Laerm;70900;51.798;10.954;2023-08-06T13:08:12;53.18;37.12;68.50;;
81493;Laerm;70900;51.798;10.954;2023-08-06T13:10:37;51.91;35.12;64.02;;
81493;Laerm;70900;51.798;10.954;2023-08-06T13:13:03;40.49;34.32;57.68;;
81493;Laerm;70900;51.798;10.954;2023-08-06T13:15:29;50.08;34.19;68.47;;
81493;Laerm;70900;51.798;10.954;2023-08-06T13:17:56;50.86;33.63;65.94;;
81493;Laerm;70900;51.798;10.954;2023-08-06T13:20:21;51.20;35.12;67.43;;
81493;Laerm;70900;51.798;10.954;2023-08-06T13:22:48;55.42;37.13;70.64;;
81493;Laerm;70900;51.798;10.954;2023-08-06T13:25:15;53.98;34.61;65.94;;
81493;Laerm;70900;51.798;10.954;2023-08-06T13:27:42;37.72;34.00;44.61;;
81493;Laerm;70900;51.798;10.954;2023-08-06T13:30:09;51.97;35.27;66.11;;
81493;Laerm;70900;51.798;10.954;2023-08-06T13:32:35;52.98;35.21;68.41;;
81493;Laerm;70900;51.798;10.954;2023-08-06T13:35:02;54.69;36.20;66.60;;
81493;Laerm;70900;51.798;10.954;2023-08-06T13:37:27;55.63;34.49;72.45;;
81493;Laerm;70900;51.798;10.954;2023-08-06T13:39:52;50.69;33.78;64.83;;